sensor_id;sensor_type;location;lat;lon;timestamp;temperature;humidity
23411;DHT22;11878;51.774;7.220;2023-06-22T00:01:55;20.20;99.90
23411;DHT22;11878;51.774;7.220;2023-06-22T00:04:57;20.10;99.90
23411;DHT22;11878;51.774;7.220;2023-06-22T00:08:03;20.20;99.90
23411;DHT22;11878;51.774;7.220;2023-06-22T00:11:06;20.30;99.90
23411;DHT22;11878;51.774;7.220;2023-06-22T00:14:08;19.90;99.90
23411;DHT22;11878;51.774;7.220;2023-06-22T00:17:10;20.10;99.90
23411;DHT22;11878;51.774;7.220;2023-06-22T00:20:11;20.00;99.90
23411;DHT22;11878;51.774;7.220;2023-06-22T00:23:13;20.00;99.90
23411;DHT22;11878;51.774;7.220;2023-06-22T00:26:17;20.00;99.90
23411;DHT22;11878;51.774;7.220;2023-06-22T00:29:19;19.90;99.90
23411;DHT22;11878;51.774;7.220;2023-06-22T00:32:22;20.00;99.90
23411;DHT22;11878;51.774;7.220;2023-06-22T00:39:01;19.90;99.90
23411;DHT22;11878;51.774;7.220;2023-06-22T00:42:04;19.90;99.90
23411;DHT22;11878;51.774;7.220;2023-06-22T00:45:07;19.90;99.90
23411;DHT22;11878;51.774;7.220;2023-06-22T00:48:09;19.80;99.90
23411;DHT22;11878;51.774;7.220;2023-06-22T00:51:14;19.80;99.90
23411;DHT22;11878;51.774;7.220;2023-06-22T00:54:16;19.70;99.90
23411;DHT22;11878;51.774;7.220;2023-06-22T00:57:26;19.70;99.90
23411;DHT22;11878;51.774;7.220;2023-06-22T01:00:30;19.60;99.90
23411;DHT22;11878;51.774;7.220;2023-06-22T01:03:34;19.70;99.90
23411;DHT22;11878;51.774;7.220;2023-06-22T01:06:45;19.60;99.90
23411;DHT22;11878;51.774;7.220;2023-06-22T01:10:07;19.60;99.90
23411;DHT22;11878;51.774;7.220;2023-06-22T01:16:33;19.50;99.90
23411;DHT22;11878;51.774;7.220;2023-06-22T01:19:43;19.50;99.90
23411;DHT22;11878;51.774;7.220;2023-06-22T01:23:17;19.50;99.90
23411;DHT22;11878;51.774;7.220;2023-06-22T01:26:54;19.60;99.90
23411;DHT22;11878;51.774;7.220;2023-06-22T01:29:59;19.40;99.90
23411;DHT22;11878;51.774;7.220;2023-06-22T01:33:03;19.50;99.90
23411;DHT22;11878;51.774;7.220;2023-06-22T01:36:06;19.40;99.90
23411;DHT22;11878;51.774;7.220;2023-06-22T01:39:09;19.60;99.90
23411;DHT22;11878;51.774;7.220;2023-06-22T01:42:11;19.20;99.90
23411;DHT22;11878;51.774;7.220;2023-06-22T01:45:15;19.20;99.90
23411;DHT22;11878;51.774;7.220;2023-06-22T01:48:18;19.20;99.90
23411;DHT22;11878;51.774;7.220;2023-06-22T01:51:20;19.30;99.90
23411;DHT22;11878;51.774;7.220;2023-06-22T01:54:22;19.20;99.90
23411;DHT22;11878;51.774;7.220;2023-06-22T01:57:25;19.20;99.90
23411;DHT22;11878;51.774;7.220;2023-06-22T02:00:32;19.20;99.90
23411;DHT22;11878;51.774;7.220;2023-06-22T02:03:48;19.20;99.90
23411;DHT22;11878;51.774;7.220;2023-06-22T02:06:57;19.20;99.90
23411;DHT22;11878;51.774;7.220;2023-06-22T02:10:02;19.20;99.90
23411;DHT22;11878;51.774;7.220;2023-06-22T02:13:07;19.20;99.90
23411;DHT22;11878;51.774;7.220;2023-06-22T02:16:13;19.20;99.90
23411;DHT22;11878;51.774;7.220;2023-06-22T02:19:16;19.20;99.90
23411;DHT22;11878;51.774;7.220;2023-06-22T02:22:19;19.20;99.90
23411;DHT22;11878;51.774;7.220;2023-06-22T02:25:21;19.00;99.90
23411;DHT22;11878;51.774;7.220;2023-06-22T02:28:29;19.00;99.90
23411;DHT22;11878;51.774;7.220;2023-06-22T02:31:56;19.10;99.90
23411;DHT22;11878;51.774;7.220;2023-06-22T02:35:11;19.00;99.90
23411;DHT22;11878;51.774;7.220;2023-06-22T02:38:13;19.00;99.90
23411;DHT22;11878;51.774;7.220;2023-06-22T02:41:16;19.70;99.90
23411;DHT22;11878;51.774;7.220;2023-06-22T02:44:57;19.20;99.90
23411;DHT22;11878;51.774;7.220;2023-06-22T02:48:12;18.90;99.90
23411;DHT22;11878;51.774;7.220;2023-06-22T02:51:14;18.90;99.90
23411;DHT22;11878;51.774;7.220;2023-06-22T02:54:16;18.90;99.90
23411;DHT22;11878;51.774;7.220;2023-06-22T02:57:20;18.90;99.90
23411;DHT22;11878;51.774;7.220;2023-06-22T03:00:22;19.00;99.90
23411;DHT22;11878;51.774;7.220;2023-06-22T03:03:24;18.80;99.90
23411;DHT22;11878;51.774;7.220;2023-06-22T03:06:28;18.70;99.90
23411;DHT22;11878;51.774;7.220;2023-06-22T03:09:30;18.70;99.90
23411;DHT22;11878;51.774;7.220;2023-06-22T03:12:32;18.70;99.90
23411;DHT22;11878;51.774;7.220;2023-06-22T03:15:34;18.70;99.90
23411;DHT22;11878;51.774;7.220;2023-06-22T03:18:35;18.60;99.90
23411;DHT22;11878;51.774;7.220;2023-06-22T03:21:38;18.60;99.90
23411;DHT22;11878;51.774;7.220;2023-06-22T03:24:40;18.50;99.90
23411;DHT22;11878;51.774;7.220;2023-06-22T03:27:42;18.70;99.90
23411;DHT22;11878;51.774;7.220;2023-06-22T03:30:45;18.70;99.90
23411;DHT22;11878;51.774;7.220;2023-06-22T03:37:36;18.70;99.90
23411;DHT22;11878;51.774;7.220;2023-06-22T03:40:43;18.80;99.90
23411;DHT22;11878;51.774;7.220;2023-06-22T03:43:45;20.20;99.90
23411;DHT22;11878;51.774;7.220;2023-06-22T03:46:53;19.10;99.90
23411;DHT22;11878;51.774;7.220;2023-06-22T03:50:01;18.40;99.90
23411;DHT22;11878;51.774;7.220;2023-06-22T03:56:58;18.50;99.90
23411;DHT22;11878;51.774;7.220;2023-06-22T04:07:15;18.50;99.90
23411;DHT22;11878;51.774;7.220;2023-06-22T04:10:17;18.50;99.90
23411;DHT22;11878;51.774;7.220;2023-06-22T04:20:31;18.70;99.90
23411;DHT22;11878;51.774;7.220;2023-06-22T04:23:34;18.70;99.90
23411;DHT22;11878;51.774;7.220;2023-06-22T04:26:36;19.30;99.90
23411;DHT22;11878;51.774;7.220;2023-06-22T04:29:39;20.00;99.90
23411;DHT22;11878;51.774;7.220;2023-06-22T04:32:50;20.50;99.90
23411;DHT22;11878;51.774;7.220;2023-06-22T04:36:00;18.70;99.90
23411;DHT22;11878;51.774;7.220;2023-06-22T04:39:16;18.70;99.90
23411;DHT22;11878;51.774;7.220;2023-06-22T04:42:28;19.60;99.90
23411;DHT22;11878;51.774;7.220;2023-06-22T04:45:30;18.80;99.90
23411;DHT22;11878;51.774;7.220;2023-06-22T04:48:32;19.60;99.90
23411;DHT22;11878;51.774;7.220;2023-06-22T04:51:48;20.20;99.90
23411;DHT22;11878;51.774;7.220;2023-06-22T04:55:04;19.90;99.90
23411;DHT22;11878;51.774;7.220;2023-06-22T04:58:53;19.80;99.90
23411;DHT22;11878;51.774;7.220;2023-06-22T05:02:24;19.20;99.90
23411;DHT22;11878;51.774;7.220;2023-06-22T05:05:30;20.30;99.90
23411;DHT22;11878;51.774;7.220;2023-06-22T05:08:34;19.60;99.90
23411;DHT22;11878;51.774;7.220;2023-06-22T05:11:36;21.80;99.90
23411;DHT22;11878;51.774;7.220;2023-06-22T05:15:04;19.80;99.90
23411;DHT22;11878;51.774;7.220;2023-06-22T05:18:07;20.30;99.90
23411;DHT22;11878;51.774;7.220;2023-06-22T05:21:09;21.30;99.90
23411;DHT22;11878;51.774;7.220;2023-06-22T05:24:19;20.00;99.90
23411;DHT22;11878;51.774;7.220;2023-06-22T05:27:39;20.00;99.90
23411;DHT22;11878;51.774;7.220;2023-06-22T05:30:42;20.90;99.90
23411;DHT22;11878;51.774;7.220;2023-06-22T05:33:59;21.00;99.90
23411;DHT22;11878;51.774;7.220;2023-06-22T05:37:04;20.00;99.90
23411;DHT22;11878;51.774;7.220;2023-06-22T05:40:07;20.00;99.90
23411;DHT22;11878;51.774;7.220;2023-06-22T05:43:20;20.00;99.90
23411;DHT22;11878;51.774;7.220;2023-06-22T05:46:33;20.00;99.90
23411;DHT22;11878;51.774;7.220;2023-06-22T05:49:36;21.60;99.90
23411;DHT22;11878;51.774;7.220;2023-06-22T05:52:40;20.20;99.90
23411;DHT22;11878;51.774;7.220;2023-06-22T05:55:56;20.70;99.90
23411;DHT22;11878;51.774;7.220;2023-06-22T05:58:58;21.40;99.90
23411;DHT22;11878;51.774;7.220;2023-06-22T06:02:00;20.30;99.90
23411;DHT22;11878;51.774;7.220;2023-06-22T06:05:04;20.80;99.90
23411;DHT22;11878;51.774;7.220;2023-06-22T06:08:11;20.40;99.90
23411;DHT22;11878;51.774;7.220;2023-06-22T06:11:15;20.20;99.90
23411;DHT22;11878;51.774;7.220;2023-06-22T06:14:17;21.30;99.90
23411;DHT22;11878;51.774;7.220;2023-06-22T06:17:23;19.40;99.90
23411;DHT22;11878;51.774;7.220;2023-06-22T06:20:33;20.10;99.90
23411;DHT22;11878;51.774;7.220;2023-06-22T06:23:35;20.20;99.90
23411;DHT22;11878;51.774;7.220;2023-06-22T06:26:38;20.10;99.90
23411;DHT22;11878;51.774;7.220;2023-06-22T06:29:41;20.00;99.90
23411;DHT22;11878;51.774;7.220;2023-06-22T06:32:45;20.10;99.90
23411;DHT22;11878;51.774;7.220;2023-06-22T06:36:14;19.80;99.90
23411;DHT22;11878;51.774;7.220;2023-06-22T06:39:17;21.10;99.90
23411;DHT22;11878;51.774;7.220;2023-06-22T06:42:19;20.60;99.90
23411;DHT22;11878;51.774;7.220;2023-06-22T06:45:22;22.20;99.90
23411;DHT22;11878;51.774;7.220;2023-06-22T06:48:24;20.60;99.90
23411;DHT22;11878;51.774;7.220;2023-06-22T06:51:51;21.40;99.90
23411;DHT22;11878;51.774;7.220;2023-06-22T06:54:56;20.20;99.90
23411;DHT22;11878;51.774;7.220;2023-06-22T06:57:58;21.30;99.90
23411;DHT22;11878;51.774;7.220;2023-06-22T07:01:01;20.70;99.90
23411;DHT22;11878;51.774;7.220;2023-06-22T07:04:04;22.10;99.90
23411;DHT22;11878;51.774;7.220;2023-06-22T07:07:10;21.70;99.90
23411;DHT22;11878;51.774;7.220;2023-06-22T07:10:19;20.60;99.90
23411;DHT22;11878;51.774;7.220;2023-06-22T07:13:23;20.90;99.90
23411;DHT22;11878;51.774;7.220;2023-06-22T07:16:25;22.80;99.90
23411;DHT22;11878;51.774;7.220;2023-06-22T07:19:28;21.70;99.90
23411;DHT22;11878;51.774;7.220;2023-06-22T07:22:34;22.00;99.90
23411;DHT22;11878;51.774;7.220;2023-06-22T07:25:37;22.50;99.90
23411;DHT22;11878;51.774;7.220;2023-06-22T07:28:39;22.70;99.90
23411;DHT22;11878;51.774;7.220;2023-06-22T07:31:45;21.60;99.90
23411;DHT22;11878;51.774;7.220;2023-06-22T07:34:47;20.80;99.90
23411;DHT22;11878;51.774;7.220;2023-06-22T07:37:52;21.80;99.90
23411;DHT22;11878;51.774;7.220;2023-06-22T07:40:59;21.50;99.90
23411;DHT22;11878;51.774;7.220;2023-06-22T07:44:24;20.80;99.90
23411;DHT22;11878;51.774;7.220;2023-06-22T07:47:25;20.80;99.90
23411;DHT22;11878;51.774;7.220;2023-06-22T07:50:29;21.10;99.90
23411;DHT22;11878;51.774;7.220;2023-06-22T07:53:36;21.10;99.90
23411;DHT22;11878;51.774;7.220;2023-06-22T07:56:38;21.90;99.90
23411;DHT22;11878;51.774;7.220;2023-06-22T07:59:40;23.10;99.90
23411;DHT22;11878;51.774;7.220;2023-06-22T08:02:46;22.00;99.90
23411;DHT22;11878;51.774;7.220;2023-06-22T08:05:52;21.60;99.90
23411;DHT22;11878;51.774;7.220;2023-06-22T08:09:00;21.10;99.90
23411;DHT22;11878;51.774;7.220;2023-06-22T08:23:05;21.50;99.90
23411;DHT22;11878;51.774;7.220;2023-06-22T08:26:19;21.70;99.90
23411;DHT22;11878;51.774;7.220;2023-06-22T08:29:21;22.90;99.90
23411;DHT22;11878;51.774;7.220;2023-06-22T08:32:24;23.20;99.90
23411;DHT22;11878;51.774;7.220;2023-06-22T08:39:21;22.30;99.90
23411;DHT22;11878;51.774;7.220;2023-06-22T08:42:23;22.50;99.90
23411;DHT22;11878;51.774;7.220;2023-06-22T08:45:26;22.60;99.90
23411;DHT22;11878;51.774;7.220;2023-06-22T08:48:34;22.10;99.90
23411;DHT22;11878;51.774;7.220;2023-06-22T08:51:42;23.90;99.90
23411;DHT22;11878;51.774;7.220;2023-06-22T08:54:44;24.00;99.90
23411;DHT22;11878;51.774;7.220;2023-06-22T08:57:47;21.40;99.90
23411;DHT22;11878;51.774;7.220;2023-06-22T09:00:49;22.40;99.90
23411;DHT22;11878;51.774;7.220;2023-06-22T09:03:53;23.60;99.90
23411;DHT22;11878;51.774;7.220;2023-06-22T09:07:02;24.70;99.90
23411;DHT22;11878;51.774;7.220;2023-06-22T09:10:20;23.60;99.90
23411;DHT22;11878;51.774;7.220;2023-06-22T09:13:30;24.00;99.90
23411;DHT22;11878;51.774;7.220;2023-06-22T09:16:33;23.60;99.90
23411;DHT22;11878;51.774;7.220;2023-06-22T09:19:36;25.40;99.90
23411;DHT22;11878;51.774;7.220;2023-06-22T09:22:48;24.00;99.90
23411;DHT22;11878;51.774;7.220;2023-06-22T09:25:51;23.80;99.90
23411;DHT22;11878;51.774;7.220;2023-06-22T09:28:53;25.60;99.90
23411;DHT22;11878;51.774;7.220;2023-06-22T09:31:55;24.20;99.90
23411;DHT22;11878;51.774;7.220;2023-06-22T09:34:57;24.20;99.90
23411;DHT22;11878;51.774;7.220;2023-06-22T09:38:02;24.10;99.90
23411;DHT22;11878;51.774;7.220;2023-06-22T09:41:04;24.20;99.90
23411;DHT22;11878;51.774;7.220;2023-06-22T09:44:06;23.90;99.90
23411;DHT22;11878;51.774;7.220;2023-06-22T09:47:08;24.30;99.90
23411;DHT22;11878;51.774;7.220;2023-06-22T09:50:14;25.90;99.90
23411;DHT22;11878;51.774;7.220;2023-06-22T09:53:19;24.80;99.90
23411;DHT22;11878;51.774;7.220;2023-06-22T09:56:24;24.80;99.90
23411;DHT22;11878;51.774;7.220;2023-06-22T09:59:32;24.70;99.90
23411;DHT22;11878;51.774;7.220;2023-06-22T10:02:34;24.70;99.90
23411;DHT22;11878;51.774;7.220;2023-06-22T10:05:36;24.60;99.90
23411;DHT22;11878;51.774;7.220;2023-06-22T10:08:38;24.40;99.90
23411;DHT22;11878;51.774;7.220;2023-06-22T10:11:43;24.20;99.90
23411;DHT22;11878;51.774;7.220;2023-06-22T10:14:50;24.40;99.90
23411;DHT22;11878;51.774;7.220;2023-06-22T10:22:44;23.80;99.90
23411;DHT22;11878;51.774;7.220;2023-06-22T10:25:47;24.20;99.90
23411;DHT22;11878;51.774;7.220;2023-06-22T10:28:57;25.00;99.90
23411;DHT22;11878;51.774;7.220;2023-06-22T10:32:09;23.80;99.90
23411;DHT22;11878;51.774;7.220;2023-06-22T10:35:11;23.90;99.90
23411;DHT22;11878;51.774;7.220;2023-06-22T10:38:16;23.90;99.90
23411;DHT22;11878;51.774;7.220;2023-06-22T10:41:18;24.00;99.90
23411;DHT22;11878;51.774;7.220;2023-06-22T10:44:20;24.00;99.90
23411;DHT22;11878;51.774;7.220;2023-06-22T10:47:22;24.80;99.90
23411;DHT22;11878;51.774;7.220;2023-06-22T10:50:26;24.40;99.90
23411;DHT22;11878;51.774;7.220;2023-06-22T10:53:28;24.80;99.90
23411;DHT22;11878;51.774;7.220;2023-06-22T10:56:30;24.90;99.90
23411;DHT22;11878;51.774;7.220;2023-06-22T10:59:32;25.30;99.90
23411;DHT22;11878;51.774;7.220;2023-06-22T11:02:43;25.30;99.90
23411;DHT22;11878;51.774;7.220;2023-06-22T11:05:52;25.50;99.90
23411;DHT22;11878;51.774;7.220;2023-06-22T11:08:54;25.30;99.90
23411;DHT22;11878;51.774;7.220;2023-06-22T11:12:13;25.60;99.90
23411;DHT22;11878;51.774;7.220;2023-06-22T11:15:17;25.70;99.90
23411;DHT22;11878;51.774;7.220;2023-06-22T11:18:23;25.50;99.90
23411;DHT22;11878;51.774;7.220;2023-06-22T11:21:25;25.50;99.90
23411;DHT22;11878;51.774;7.220;2023-06-22T11:24:27;25.30;99.90
23411;DHT22;11878;51.774;7.220;2023-06-22T11:27:32;25.40;99.90
23411;DHT22;11878;51.774;7.220;2023-06-22T11:30:34;25.10;99.90
23411;DHT22;11878;51.774;7.220;2023-06-22T11:33:36;24.80;99.90
23411;DHT22;11878;51.774;7.220;2023-06-22T11:36:45;24.90;99.90
23411;DHT22;11878;51.774;7.220;2023-06-22T11:39:49;24.80;99.90
23411;DHT22;11878;51.774;7.220;2023-06-22T11:43:12;24.50;99.90
23411;DHT22;11878;51.774;7.220;2023-06-22T11:46:22;25.10;99.90
23411;DHT22;11878;51.774;7.220;2023-06-22T11:49:32;24.30;99.90
23411;DHT22;11878;51.774;7.220;2023-06-22T11:52:36;24.30;99.90
23411;DHT22;11878;51.774;7.220;2023-06-22T11:55:39;24.20;99.90
23411;DHT22;11878;51.774;7.220;2023-06-22T11:58:45;24.20;99.90
23411;DHT22;11878;51.774;7.220;2023-06-22T12:01:48;24.20;99.90
23411;DHT22;11878;51.774;7.220;2023-06-22T12:04:54;24.10;99.90
23411;DHT22;11878;51.774;7.220;2023-06-22T12:08:02;24.00;99.90
23411;DHT22;11878;51.774;7.220;2023-06-22T12:11:08;23.90;99.90
23411;DHT22;11878;51.774;7.220;2023-06-22T12:14:12;24.10;99.90
23411;DHT22;11878;51.774;7.220;2023-06-22T12:17:17;23.90;99.90
23411;DHT22;11878;51.774;7.220;2023-06-22T12:20:20;24.20;99.90
23411;DHT22;11878;51.774;7.220;2023-06-22T12:23:30;23.60;99.90
23411;DHT22;11878;51.774;7.220;2023-06-22T12:30:16;23.30;99.90
23411;DHT22;11878;51.774;7.220;2023-06-22T12:33:18;23.10;99.90
23411;DHT22;11878;51.774;7.220;2023-06-22T12:36:20;23.60;99.90
23411;DHT22;11878;51.774;7.220;2023-06-22T12:39:23;22.60;99.90
23411;DHT22;11878;51.774;7.220;2023-06-22T12:42:24;22.60;99.90
23411;DHT22;11878;51.774;7.220;2023-06-22T12:45:28;22.20;99.90
23411;DHT22;11878;51.774;7.220;2023-06-22T12:48:33;22.20;99.90
23411;DHT22;11878;51.774;7.220;2023-06-22T12:51:46;22.10;99.90
23411;DHT22;11878;51.774;7.220;2023-06-22T12:54:51;22.10;99.90
23411;DHT22;11878;51.774;7.220;2023-06-22T12:57:56;23.00;99.90
23411;DHT22;11878;51.774;7.220;2023-06-22T13:01:03;21.80;99.90
23411;DHT22;11878;51.774;7.220;2023-06-22T13:04:05;21.20;99.90
23411;DHT22;11878;51.774;7.220;2023-06-22T13:07:09;22.00;99.90
23411;DHT22;11878;51.774;7.220;2023-06-22T13:10:23;22.10;99.90
23411;DHT22;11878;51.774;7.220;2023-06-22T13:13:26;23.60;99.90
23411;DHT22;11878;51.774;7.220;2023-06-22T13:16:29;22.40;99.90
23411;DHT22;11878;51.774;7.220;2023-06-22T13:19:31;23.30;99.90
23411;DHT22;11878;51.774;7.220;2023-06-22T13:22:40;23.70;99.90
23411;DHT22;11878;51.774;7.220;2023-06-22T13:25:44;22.60;99.90
23411;DHT22;11878;51.774;7.220;2023-06-22T13:28:58;22.40;99.90
23411;DHT22;11878;51.774;7.220;2023-06-22T13:32:10;22.50;99.90
23411;DHT22;11878;51.774;7.220;2023-06-22T13:35:14;22.40;99.90
23411;DHT22;11878;51.774;7.220;2023-06-22T13:38:16;22.30;99.90
23411;DHT22;11878;51.774;7.220;2023-06-22T13:41:22;23.80;99.90
23411;DHT22;11878;51.774;7.220;2023-06-22T13:44:31;22.60;99.90
23411;DHT22;11878;51.774;7.220;2023-06-22T13:47:34;22.50;99.90
23411;DHT22;11878;51.774;7.220;2023-06-22T13:50:38;22.50;99.90
23411;DHT22;11878;51.774;7.220;2023-06-22T13:53:46;22.50;99.90
23411;DHT22;11878;51.774;7.220;2023-06-22T13:56:50;22.40;99.90
23411;DHT22;11878;51.774;7.220;2023-06-22T13:59:53;22.30;99.90
23411;DHT22;11878;51.774;7.220;2023-06-22T14:02:56;22.30;99.90
23411;DHT22;11878;51.774;7.220;2023-06-22T14:05:59;22.20;99.90
23411;DHT22;11878;51.774;7.220;2023-06-22T14:09:01;22.50;99.90
23411;DHT22;11878;51.774;7.220;2023-06-22T14:12:06;22.40;99.90
23411;DHT22;11878;51.774;7.220;2023-06-22T14:15:10;22.10;99.90
23411;DHT22;11878;51.774;7.220;2023-06-22T14:18:12;22.10;99.90
23411;DHT22;11878;51.774;7.220;2023-06-22T14:21:15;22.70;99.90
23411;DHT22;11878;51.774;7.220;2023-06-22T14:24:17;22.10;99.90
23411;DHT22;11878;51.774;7.220;2023-06-22T14:27:19;22.30;99.90
23411;DHT22;11878;51.774;7.220;2023-06-22T14:30:24;22.20;99.90
23411;DHT22;11878;51.774;7.220;2023-06-22T14:33:27;22.20;99.90
23411;DHT22;11878;51.774;7.220;2023-06-22T14:36:29;22.30;99.90
23411;DHT22;11878;51.774;7.220;2023-06-22T14:39:37;21.20;99.90
23411;DHT22;11878;51.774;7.220;2023-06-22T14:42:40;22.10;99.90
23411;DHT22;11878;51.774;7.220;2023-06-22T14:45:42;22.20;99.90
23411;DHT22;11878;51.774;7.220;2023-06-22T14:48:48;22.10;99.90
23411;DHT22;11878;51.774;7.220;2023-06-22T14:51:50;22.10;99.90
23411;DHT22;11878;51.774;7.220;2023-06-22T14:54:53;23.00;99.90
23411;DHT22;11878;51.774;7.220;2023-06-22T14:57:55;22.20;99.90
23411;DHT22;11878;51.774;7.220;2023-06-22T15:00:56;23.60;99.90
23411;DHT22;11878;51.774;7.220;2023-06-22T15:03:58;22.30;99.90
23411;DHT22;11878;51.774;7.220;2023-06-22T15:07:00;22.40;99.90
23411;DHT22;11878;51.774;7.220;2023-06-22T15:10:03;22.90;99.90
23411;DHT22;11878;51.774;7.220;2023-06-22T15:13:08;22.30;99.90
23411;DHT22;11878;51.774;7.220;2023-06-22T15:16:10;22.40;99.90
23411;DHT22;11878;51.774;7.220;2023-06-22T15:19:19;22.60;99.90
23411;DHT22;11878;51.774;7.220;2023-06-22T15:22:21;22.50;99.90
23411;DHT22;11878;51.774;7.220;2023-06-22T15:25:26;22.60;99.90
23411;DHT22;11878;51.774;7.220;2023-06-22T15:28:30;23.20;99.90
23411;DHT22;11878;51.774;7.220;2023-06-22T15:31:40;23.50;99.90
23411;DHT22;11878;51.774;7.220;2023-06-22T15:34:45;22.20;99.90
23411;DHT22;11878;51.774;7.220;2023-06-22T15:37:50;22.20;99.90
23411;DHT22;11878;51.774;7.220;2023-06-22T15:40:56;22.20;99.90
23411;DHT22;11878;51.774;7.220;2023-06-22T15:44:04;22.80;99.90
23411;DHT22;11878;51.774;7.220;2023-06-22T15:47:06;22.00;99.90
23411;DHT22;11878;51.774;7.220;2023-06-22T15:50:09;22.20;99.90
23411;DHT22;11878;51.774;7.220;2023-06-22T15:53:14;21.90;99.90
23411;DHT22;11878;51.774;7.220;2023-06-22T15:56:16;21.80;99.90
23411;DHT22;11878;51.774;7.220;2023-06-22T15:59:25;21.60;99.90
23411;DHT22;11878;51.774;7.220;2023-06-22T16:02:27;21.70;99.90
23411;DHT22;11878;51.774;7.220;2023-06-22T16:05:30;21.60;99.90
23411;DHT22;11878;51.774;7.220;2023-06-22T16:08:34;21.50;99.90
23411;DHT22;11878;51.774;7.220;2023-06-22T16:11:38;21.70;99.90
23411;DHT22;11878;51.774;7.220;2023-06-22T16:14:40;21.60;99.90
23411;DHT22;11878;51.774;7.220;2023-06-22T16:17:51;21.60;99.90
23411;DHT22;11878;51.774;7.220;2023-06-22T16:20:53;22.50;99.90
23411;DHT22;11878;51.774;7.220;2023-06-22T16:23:55;22.60;99.90
23411;DHT22;11878;51.774;7.220;2023-06-22T16:27:01;21.40;99.90
23411;DHT22;11878;51.774;7.220;2023-06-22T16:30:03;21.20;99.90
23411;DHT22;11878;51.774;7.220;2023-06-22T16:33:05;21.40;99.90
23411;DHT22;11878;51.774;7.220;2023-06-22T16:36:08;21.20;99.90
23411;DHT22;11878;51.774;7.220;2023-06-22T16:39:11;22.30;99.90
23411;DHT22;11878;51.774;7.220;2023-06-22T16:42:16;20.80;99.90
23411;DHT22;11878;51.774;7.220;2023-06-22T16:45:26;20.50;99.90
23411;DHT22;11878;51.774;7.220;2023-06-22T16:48:28;20.70;99.90
23411;DHT22;11878;51.774;7.220;2023-06-22T16:51:30;21.20;99.90
23411;DHT22;11878;51.774;7.220;2023-06-22T16:54:34;21.80;99.90
23411;DHT22;11878;51.774;7.220;2023-06-22T16:57:45;20.50;99.90
23411;DHT22;11878;51.774;7.220;2023-06-22T17:00:55;20.90;99.90
23411;DHT22;11878;51.774;7.220;2023-06-22T17:04:21;21.50;99.90
23411;DHT22;11878;51.774;7.220;2023-06-22T17:07:26;21.70;99.90
23411;DHT22;11878;51.774;7.220;2023-06-22T17:10:32;21.30;99.90
23411;DHT22;11878;51.774;7.220;2023-06-22T17:13:36;20.00;99.90
23411;DHT22;11878;51.774;7.220;2023-06-22T17:16:48;20.10;99.90
23411;DHT22;11878;51.774;7.220;2023-06-22T17:19:51;20.50;99.90
23411;DHT22;11878;51.774;7.220;2023-06-22T17:22:53;21.80;99.90
23411;DHT22;11878;51.774;7.220;2023-06-22T17:25:58;19.90;99.90
23411;DHT22;11878;51.774;7.220;2023-06-22T17:29:08;21.70;99.90
23411;DHT22;11878;51.774;7.220;2023-06-22T17:32:13;21.40;99.90
23411;DHT22;11878;51.774;7.220;2023-06-22T17:35:15;19.30;99.90
23411;DHT22;11878;51.774;7.220;2023-06-22T17:38:21;19.90;99.90
23411;DHT22;11878;51.774;7.220;2023-06-22T17:41:32;19.70;99.90
23411;DHT22;11878;51.774;7.220;2023-06-22T17:44:34;20.70;99.90
23411;DHT22;11878;51.774;7.220;2023-06-22T17:47:38;19.70;99.90
23411;DHT22;11878;51.774;7.220;2023-06-22T17:50:41;20.80;99.90
23411;DHT22;11878;51.774;7.220;2023-06-22T17:54:02;19.90;99.90
23411;DHT22;11878;51.774;7.220;2023-06-22T17:57:16;21.60;99.90
23411;DHT22;11878;51.774;7.220;2023-06-22T18:00:28;19.60;99.90
23411;DHT22;11878;51.774;7.220;2023-06-22T18:03:35;21.40;99.90
23411;DHT22;11878;51.774;7.220;2023-06-22T18:06:43;20.60;99.90
23411;DHT22;11878;51.774;7.220;2023-06-22T18:09:47;21.00;99.90
23411;DHT22;11878;51.774;7.220;2023-06-22T18:12:55;19.60;99.90
23411;DHT22;11878;51.774;7.220;2023-06-22T18:15:57;20.90;99.90
23411;DHT22;11878;51.774;7.220;2023-06-22T18:19:00;19.60;99.90
23411;DHT22;11878;51.774;7.220;2023-06-22T18:22:02;20.30;99.90
23411;DHT22;11878;51.774;7.220;2023-06-22T18:25:05;19.60;99.90
23411;DHT22;11878;51.774;7.220;2023-06-22T18:28:09;19.60;99.90
23411;DHT22;11878;51.774;7.220;2023-06-22T18:31:17;20.90;99.90
23411;DHT22;11878;51.774;7.220;2023-06-22T18:34:22;19.70;99.90
23411;DHT22;11878;51.774;7.220;2023-06-22T18:37:31;18.60;99.90
23411;DHT22;11878;51.774;7.220;2023-06-22T18:40:49;21.70;99.90
23411;DHT22;11878;51.774;7.220;2023-06-22T18:43:54;20.10;99.90
23411;DHT22;11878;51.774;7.220;2023-06-22T18:47:02;19.70;99.90
23411;DHT22;11878;51.774;7.220;2023-06-22T18:50:08;20.80;99.90
23411;DHT22;11878;51.774;7.220;2023-06-22T18:53:14;19.70;99.90
23411;DHT22;11878;51.774;7.220;2023-06-22T18:56:23;20.30;99.90
23411;DHT22;11878;51.774;7.220;2023-06-22T18:59:50;19.70;99.90
23411;DHT22;11878;51.774;7.220;2023-06-22T19:06:01;19.60;99.90
23411;DHT22;11878;51.774;7.220;2023-06-22T19:09:14;19.50;99.90
23411;DHT22;11878;51.774;7.220;2023-06-22T19:12:40;19.90;99.90
23411;DHT22;11878;51.774;7.220;2023-06-22T19:16:09;19.60;99.90
23411;DHT22;11878;51.774;7.220;2023-06-22T19:19:12;20.60;99.90
23411;DHT22;11878;51.774;7.220;2023-06-22T19:22:18;19.90;99.90
23411;DHT22;11878;51.774;7.220;2023-06-22T19:25:22;20.90;99.90
23411;DHT22;11878;51.774;7.220;2023-06-22T19:28:32;20.80;99.90
23411;DHT22;11878;51.774;7.220;2023-06-22T19:31:34;19.60;99.90
23411;DHT22;11878;51.774;7.220;2023-06-22T19:34:41;21.90;99.90
23411;DHT22;11878;51.774;7.220;2023-06-22T19:37:48;20.20;99.90
23411;DHT22;11878;51.774;7.220;2023-06-22T19:40:54;20.70;99.90
23411;DHT22;11878;51.774;7.220;2023-06-22T19:43:56;19.60;99.90
23411;DHT22;11878;51.774;7.220;2023-06-22T19:46:58;21.30;99.90
23411;DHT22;11878;51.774;7.220;2023-06-22T19:50:12;19.50;99.90
23411;DHT22;11878;51.774;7.220;2023-06-22T19:53:19;19.40;99.90
23411;DHT22;11878;51.774;7.220;2023-06-22T19:56:36;19.40;99.90
23411;DHT22;11878;51.774;7.220;2023-06-22T19:59:41;19.50;99.90
23411;DHT22;11878;51.774;7.220;2023-06-22T20:02:52;20.40;99.90
23411;DHT22;11878;51.774;7.220;2023-06-22T20:06:07;19.50;99.90
23411;DHT22;11878;51.774;7.220;2023-06-22T20:09:13;19.90;99.90
23411;DHT22;11878;51.774;7.220;2023-06-22T20:12:24;18.80;99.90
23411;DHT22;11878;51.774;7.220;2023-06-22T20:15:27;19.70;99.90
23411;DHT22;11878;51.774;7.220;2023-06-22T20:18:33;19.40;99.90
23411;DHT22;11878;51.774;7.220;2023-06-22T20:21:36;19.70;99.90
23411;DHT22;11878;51.774;7.220;2023-06-22T20:24:40;18.40;99.90
23411;DHT22;11878;51.774;7.220;2023-06-22T20:27:42;17.60;99.90
23411;DHT22;11878;51.774;7.220;2023-06-22T20:31:07;19.60;99.90